Time;durP1;ratioP1;P1;durP2;ratioP2;P2;SDS_P1;SDS_P2;PMS_P1;PMS_P2;Temp;Humidity;BMP_temperature;BMP_pressure;BME280_temperature;BME280_humidity;BME280_pressure;Samples;Min_cycle;Max_cycle;Signal;HPM_P1;HPM_P2
2020/12/23 00:01:20;;;;;;;21.13;15.37;;;9.40;99.90;;;;;;5023685;28;20611;-78
2020/12/23 00:03:46;;;;;;;24.33;17.10;;;9.40;99.90;;;;;;5024180;28;20202;-77
2020/12/23 00:06:13;;;;;;;26.30;17.87;;;9.40;99.90;;;;;;5024493;28;20209;-77
2020/12/23 00:08:39;;;;;;;20.47;15.93;;;9.40;99.90;;;;;;5024199;28;20226;-78
2020/12/23 00:11:06;;;;;;;22.20;16.00;;;9.40;99.90;;;;;;5023730;28;20211;-78
2020/12/23 00:13:32;;;;;;;22.83;15.00;;;9.40;99.90;;;;;;5024240;28;20203;-77
2020/12/23 00:15:58;;;;;;;16.67;14.07;;;9.40;99.90;;;;;;5024097;28;20203;-79
2020/12/23 00:18:28;;;;;;;20.80;15.50;;;9.40;99.90;;;;;;5023213;28;20221;-79
2020/12/23 00:20:54;;;;;;;23.50;16.10;;;9.40;99.90;;;;;;5027828;28;20206;-77
2020/12/23 00:23:21;;;;;;;16.50;13.37;;;9.40;99.90;;;;;;5043607;28;20507;-81
2020/12/23 00:25:47;;;;;;;24.37;16.93;;;9.40;99.90;;;;;;5041917;28;20966;-78
2020/12/23 00:28:13;;;;;;;21.03;14.80;;;9.40;99.90;;;;;;5042646;28;20238;-78
2020/12/23 00:30:41;;;;;;;21.37;15.07;;;9.40;99.90;;;;;;5042814;28;20499;-78
2020/12/23 00:33:07;;;;;;;21.43;15.83;;;9.40;99.90;;;;;;5042897;28;20256;-80
2020/12/23 00:35:34;;;;;;;22.90;16.53;;;9.40;99.90;;;;;;5043680;28;20193;-77
2020/12/23 00:38:00;;;;;;;23.03;16.30;;;9.40;99.90;;;;;;5042601;28;20874;-78
2020/12/23 00:40:28;;;;;;;22.90;16.83;;;9.40;99.90;;;;;;5042370;28;20244;-79
2020/12/23 00:42:57;;;;;;;28.63;19.20;;;9.40;99.90;;;;;;5043622;28;20202;-79
2020/12/23 00:45:23;;;;;;;26.97;18.43;;;9.40;99.90;;;;;;5043154;28;20202;-79
2020/12/23 00:47:49;;;;;;;20.83;16.73;;;9.30;99.90;;;;;;5042378;28;20197;-77
2020/12/23 00:50:15;;;;;;;22.57;16.43;;;9.30;99.90;;;;;;5042047;28;20527;-78
2020/12/23 00:52:43;;;;;;;21.53;16.37;;;9.30;99.90;;;;;;5040543;28;20194;-79
2020/12/23 00:55:09;;;;;;;20.57;14.97;;;9.30;99.90;;;;;;5043945;28;20209;-80
2020/12/23 00:57:36;;;;;;;22.23;16.13;;;9.30;99.90;;;;;;5045815;28;20255;-81
2020/12/23 01:00:03;;;;;;;24.97;17.10;;;9.30;99.90;;;;;;5044769;28;20205;-81
2020/12/23 01:02:30;;;;;;;27.60;18.00;;;9.30;99.90;;;;;;5045765;28;20205;-81
2020/12/23 01:04:56;;;;;;;23.73;18.33;;;9.30;99.90;;;;;;5045328;28;20202;-80
2020/12/23 01:07:22;;;;;;;19.77;15.47;;;9.30;99.90;;;;;;5044874;28;20209;-81
2020/12/23 01:09:50;;;;;;;23.00;16.77;;;9.40;99.90;;;;;;5045206;28;20233;-81
2020/12/23 01:12:17;;;;;;;24.37;16.43;;;9.30;99.90;;;;;;5044950;28;20225;-81
2020/12/23 01:14:43;;;;;;;22.93;15.87;;;9.40;99.90;;;;;;5044724;28;20220;-81
2020/12/23 01:17:11;;;;;;;24.87;18.00;;;9.40;99.90;;;;;;5044507;28;20294;-79
2020/12/23 01:19:38;;;;;;;27.47;17.00;;;9.40;99.90;;;;;;5044392;28;20201;-79
2020/12/23 01:22:04;;;;;;;20.10;15.83;;;9.40;99.90;;;;;;5042471;28;20194;-77
2020/12/23 01:24:30;;;;;;;23.03;16.97;;;9.40;99.90;;;;;;5045056;28;20263;-81
2020/12/23 01:26:58;;;;;;;19.77;14.50;;;9.40;99.90;;;;;;5044067;28;20241;-78
2020/12/23 01:29:24;;;;;;;23.73;16.20;;;9.40;99.90;;;;;;5042221;28;20509;-78
2020/12/23 01:31:51;;;;;;;27.30;19.03;;;9.40;99.90;;;;;;5042689;28;20213;-80
2020/12/23 01:34:17;;;;;;;30.77;20.23;;;9.40;99.90;;;;;;5042504;28;20204;-79
2020/12/23 01:36:48;;;;;;;26.40;18.93;;;9.40;99.90;;;;;;5042216;28;20202;-79
2020/12/23 01:39:14;;;;;;;32.70;21.13;;;9.40;99.90;;;;;;5045848;28;20209;-80
2020/12/23 01:41:41;;;;;;;31.83;20.70;;;9.40;99.90;;;;;;5045621;28;20202;-79
2020/12/23 01:44:08;;;;;;;29.37;19.70;;;9.50;99.90;;;;;;5044934;28;20209;-79
2020/12/23 01:46:36;;;;;;;27.43;20.07;;;9.40;99.90;;;;;;5045275;28;20206;-78
2020/12/23 01:49:06;;;;;;;27.90;20.10;;;9.40;99.90;;;;;;5044689;28;20225;-79
2020/12/23 01:51:32;;;;;;;25.80;18.50;;;9.40;99.90;;;;;;5046115;28;20202;-78
2020/12/23 01:53:59;;;;;;;41.40;23.93;;;9.40;99.90;;;;;;5045281;28;20201;-78
2020/12/23 01:56:26;;;;;;;32.87;22.33;;;9.50;99.90;;;;;;5044948;28;20208;-79
2020/12/23 01:58:52;;;;;;;31.03;20.53;;;9.40;99.90;;;;;;5044775;28;20202;-79
2020/12/23 02:01:20;;;;;;;30.07;20.70;;;9.50;99.90;;;;;;5045097;28;20209;-78
2020/12/23 02:03:48;;;;;;;35.47;22.60;;;9.50;99.90;;;;;;5045055;28;20317;-78
2020/12/23 02:06:14;;;;;;;38.27;24.47;;;9.50;99.90;;;;;;5045302;28;20832;-79
2020/12/23 02:08:41;;;;;;;38.57;24.17;;;9.50;99.90;;;;;;5045824;28;20206;-79
2020/12/23 02:11:09;;;;;;;43.57;25.57;;;9.50;99.90;;;;;;5044103;28;20202;-79
2020/12/23 02:13:37;;;;;;;41.83;26.63;;;9.50;99.90;;;;;;5045224;28;20213;-78
2020/12/23 02:16:04;;;;;;;40.67;24.93;;;9.50;99.90;;;;;;5045295;28;20209;-80
2020/12/23 02:18:31;;;;;;;42.30;24.60;;;9.50;99.90;;;;;;5045392;28;20233;-78
2020/12/23 02:20:58;;;;;;;44.73;26.13;;;9.50;99.90;;;;;;5038527;28;20195;-79
2020/12/23 02:23:25;;;;;;;47.33;28.40;;;9.50;99.90;;;;;;5024501;28;20213;-78
2020/12/23 02:25:51;;;;;;;51.97;28.80;;;9.60;99.90;;;;;;5024765;28;20198;-79
2020/12/23 02:28:18;;;;;;;64.40;30.47;;;9.50;99.90;;;;;;5025061;28;20552;-79
2020/12/23 02:30:44;;;;;;;69.70;31.33;;;9.60;99.90;;;;;;5024486;28;20230;-79
2020/12/23 02:33:10;;;;;;;58.13;29.53;;;9.60;99.90;;;;;;5023964;28;20210;-79
2020/12/23 02:35:37;;;;;;;70.80;31.97;;;9.60;99.90;;;;;;5024420;28;20222;-80
2020/12/23 02:38:03;;;;;;;67.00;31.00;;;9.70;99.90;;;;;;5023635;28;20210;-79
2020/12/23 02:40:30;;;;;;;62.43;30.60;;;9.70;99.90;;;;;;5024346;28;20212;-79
2020/12/23 02:42:56;;;;;;;61.40;29.03;;;9.60;99.90;;;;;;5024962;28;20207;-79
2020/12/23 02:45:23;;;;;;;64.63;29.57;;;9.60;99.90;;;;;;5023899;28;20992;-80
2020/12/23 02:47:49;;;;;;;68.57;29.50;;;9.60;99.90;;;;;;5023973;28;20214;-80
2020/12/23 02:50:15;;;;;;;68.20;29.80;;;9.70;99.90;;;;;;5023883;28;20625;-78
2020/12/23 02:52:42;;;;;;;65.00;31.63;;;9.70;99.90;;;;;;5023998;28;20460;-79
2020/12/23 02:55:08;;;;;;;58.63;26.30;;;9.60;99.90;;;;;;5023669;28;20533;-78
2020/12/23 02:57:35;;;;;;;54.43;27.10;;;9.60;99.90;;;;;;5023964;28;20202;-78
2020/12/23 03:00:03;;;;;;;76.07;31.70;;;9.60;99.90;;;;;;5023177;28;20199;-79
2020/12/23 03:02:29;;;;;;;65.97;30.20;;;9.60;99.90;;;;;;5023688;28;20194;-78
2020/12/23 03:04:57;;;;;;;97.47;34.77;;;9.70;99.90;;;;;;5023844;28;20203;-79
2020/12/23 03:07:23;;;;;;;68.83;30.47;;;9.60;99.90;;;;;;5023326;28;20968;-78
2020/12/23 03:09:49;;;;;;;64.50;31.83;;;9.60;99.90;;;;;;5024654;28;20230;-78
2020/12/23 03:12:16;;;;;;;67.83;30.70;;;9.60;99.90;;;;;;5024495;28;20334;-79
2020/12/23 03:14:43;;;;;;;73.93;33.27;;;9.60;99.90;;;;;;5023942;28;20226;-79
2020/12/23 03:17:09;;;;;;;69.90;31.97;;;9.60;99.90;;;;;;5024091;28;20560;-78
2020/12/23 03:19:36;;;;;;;72.17;32.13;;;9.60;99.90;;;;;;5024477;28;20209;-77
2020/12/23 03:22:02;;;;;;;75.63;32.63;;;9.60;99.90;;;;;;5038418;28;20206;-79
2020/12/23 03:24:28;;;;;;;66.40;30.40;;;9.60;99.90;;;;;;5044342;28;20225;-78
2020/12/23 03:26:54;;;;;;;62.70;29.67;;;9.60;99.90;;;;;;5043294;28;20234;-79
2020/12/23 03:29:22;;;;;;;66.30;30.77;;;9.50;99.90;;;;;;5042002;28;20225;-78
2020/12/23 03:31:50;;;;;;;68.20;33.47;;;9.60;99.90;;;;;;5043316;28;20202;-80
2020/12/23 03:34:16;;;;;;;62.17;32.10;;;9.60;99.90;;;;;;5042814;28;20209;-80
2020/12/23 03:36:42;;;;;;;62.70;33.30;;;9.50;99.90;;;;;;5042869;28;20206;-78
2020/12/23 03:39:08;;;;;;;61.73;30.17;;;9.60;99.90;;;;;;5044323;28;20194;-78
2020/12/23 03:41:35;;;;;;;59.93;31.20;;;9.60;99.90;;;;;;5043531;28;20190;-78
2020/12/23 03:44:01;;;;;;;58.27;29.70;;;9.60;99.90;;;;;;5043921;28;20206;-78
2020/12/23 03:46:27;;;;;;;56.90;30.13;;;9.60;99.90;;;;;;5044320;28;20198;-79
2020/12/23 03:48:55;;;;;;;59.67;30.77;;;9.60;99.90;;;;;;5044474;28;20222;-78
2020/12/23 03:51:21;;;;;;;60.90;31.10;;;9.60;99.90;;;;;;5044188;28;21013;-79
2020/12/23 03:53:47;;;;;;;61.27;30.67;;;9.60;99.90;;;;;;5043832;28;20593;-79
2020/12/23 03:56:14;;;;;;;57.07;30.27;;;9.50;99.90;;;;;;5043745;28;20251;-79
2020/12/23 03:58:40;;;;;;;61.20;30.83;;;9.60;99.90;;;;;;5043900;28;20629;-79
2020/12/23 04:01:06;;;;;;;62.50;32.67;;;9.60;99.90;;;;;;5042234;28;20620;-78
2020/12/23 04:03:33;;;;;;;62.23;30.57;;;9.50;99.90;;;;;;5043486;28;20527;-78
2020/12/23 04:06:02;;;;;;;61.93;31.33;;;9.60;99.90;;;;;;5043630;28;20202;-78
2020/12/23 04:08:28;;;;;;;65.00;32.30;;;9.60;99.90;;;;;;5043167;28;20206;-78
2020/12/23 04:10:55;;;;;;;59.20;30.87;;;9.60;99.90;;;;;;5043631;28;20610;-78
2020/12/23 04:13:21;;;;;;;61.90;31.40;;;9.60;99.90;;;;;;5043244;28;20198;-77
2020/12/23 04:15:47;;;;;;;65.97;33.63;;;9.50;99.90;;;;;;5043584;28;20202;-77
2020/12/23 04:18:13;;;;;;;63.50;34.20;;;9.50;99.90;;;;;;5042628;28;20230;-79
2020/12/23 04:20:41;;;;;;;64.37;33.57;;;9.60;99.90;;;;;;5043891;28;20209;-78
2020/12/23 04:23:09;;;;;;;68.17;33.50;;;9.60;99.90;;;;;;5043190;28;20213;-78
2020/12/23 04:25:35;;;;;;;80.37;37.70;;;9.60;99.90;;;;;;5043139;28;20906;-78
2020/12/23 04:28:01;;;;;;;67.97;34.80;;;9.60;99.90;;;;;;5042869;28;20241;-78
2020/12/23 04:30:27;;;;;;;67.40;35.07;;;9.60;99.90;;;;;;5043548;28;20225;-79
2020/12/23 04:32:54;;;;;;;73.70;37.03;;;9.60;99.90;;;;;;5042651;28;20661;-79
2020/12/23 04:35:20;;;;;;;72.63;34.33;;;9.60;99.90;;;;;;5043609;28;20244;-79
2020/12/23 04:37:46;;;;;;;73.80;36.97;;;9.60;99.90;;;;;;5042620;28;20198;-79
2020/12/23 04:40:13;;;;;;;65.17;33.30;;;9.60;99.90;;;;;;5042889;28;20684;-78
2020/12/23 04:42:40;;;;;;;80.23;38.03;;;9.60;99.90;;;;;;5042752;28;20217;-79
2020/12/23 04:45:07;;;;;;;67.37;33.60;;;9.60;99.90;;;;;;5042677;28;21042;-79
2020/12/23 04:47:37;;;;;;;73.97;35.10;;;9.60;99.90;;;;;;5042049;28;20444;-80
2020/12/23 04:50:04;;;;;;;61.07;35.70;;;9.60;99.90;;;;;;5041932;28;20287;-80
2020/12/23 04:52:33;;;;;;;74.60;35.27;;;9.60;99.90;;;;;;5042039;28;20194;-80
2020/12/23 04:55:01;;;;;;;64.03;33.83;;;9.60;99.90;;;;;;5042274;28;20201;-79
2020/12/23 04:57:28;;;;;;;64.73;31.80;;;9.60;99.90;;;;;;5042908;28;20264;-79
2020/12/23 04:59:55;;;;;;;65.60;34.27;;;9.60;99.90;;;;;;5041805;28;20999;-79
2020/12/23 05:02:22;;;;;;;68.73;35.93;;;9.60;99.90;;;;;;5042470;28;20202;-82
2020/12/23 05:04:48;;;;;;;70.50;34.53;;;9.60;99.90;;;;;;5042456;28;20198;-79
2020/12/23 05:07:19;;;;;;;66.60;33.57;;;9.60;99.90;;;;;;5041363;28;20224;-80
2020/12/23 05:09:47;;;;;;;63.27;33.87;;;9.70;99.90;;;;;;5042351;28;20638;-80
2020/12/23 05:12:14;;;;;;;69.17;33.77;;;9.70;99.90;;;;;;5042141;28;20321;-79
2020/12/23 05:14:42;;;;;;;64.63;33.83;;;9.70;99.90;;;;;;5041696;28;20213;-78
2020/12/23 05:17:09;;;;;;;73.17;35.50;;;9.60;99.90;;;;;;5041841;28;20229;-79
2020/12/23 05:19:37;;;;;;;70.30;34.70;;;9.60;99.90;;;;;;5042520;28;20318;-80
2020/12/23 05:22:05;;;;;;;61.37;33.90;;;9.60;99.90;;;;;;5026290;28;20233;-80
2020/12/23 05:24:34;;;;;;;66.13;33.87;;;9.60;99.90;;;;;;5022694;28;20195;-81
2020/12/23 05:27:04;;;;;;;63.47;33.23;;;9.60;99.90;;;;;;5021101;28;20345;-79
2020/12/23 05:29:30;;;;;;;64.63;33.57;;;9.70;99.90;;;;;;5021889;28;20225;-81
2020/12/23 05:31:58;;;;;;;76.87;34.20;;;9.70;99.90;;;;;;5021838;28;20218;-81
2020/12/23 05:34:25;;;;;;;70.37;32.70;;;9.70;99.90;;;;;;5021762;28;20764;-81
2020/12/23 05:36:52;;;;;;;68.97;34.37;;;9.70;99.90;;;;;;5024584;28;20563;-82
2020/12/23 05:39:18;;;;;;;68.10;32.10;;;9.70;99.90;;;;;;5024098;28;20984;-82
2020/12/23 05:41:46;;;;;;;68.00;33.30;;;9.70;99.90;;;;;;5024671;28;20280;-82
2020/12/23 05:44:20;;;;;;;69.23;32.10;;;9.70;99.90;;;;;;5023843;28;20210;-82
2020/12/23 05:46:48;;;;;;;68.07;34.27;;;9.70;99.90;;;;;;5025442;28;20197;-82
2020/12/23 05:49:16;;;;;;;75.07;33.20;;;9.70;99.90;;;;;;5023761;28;20228;-82
2020/12/23 05:51:43;;;;;;;80.27;35.80;;;9.70;99.90;;;;;;5024083;28;20273;-82
2020/12/23 05:54:11;;;;;;;65.27;32.10;;;9.70;99.90;;;;;;5023292;28;20207;-82
2020/12/23 05:56:38;;;;;;;69.27;33.47;;;9.70;99.90;;;;;;5022376;28;20592;-81
2020/12/23 05:59:04;;;;;;;72.07;33.90;;;9.80;99.90;;;;;;5022553;28;20849;-81
2020/12/23 06:01:34;;;;;;;66.37;32.87;;;9.80;99.90;;;;;;5023605;28;20206;-81
2020/12/23 06:04:05;;;;;;;65.53;31.23;;;9.70;99.90;;;;;;5021508;28;20313;-82
2020/12/23 06:06:33;;;;;;;66.90;31.47;;;9.80;99.90;;;;;;5023269;28;20202;-80
2020/12/23 06:09:02;;;;;;;65.90;32.77;;;9.80;99.90;;;;;;5023366;28;20249;-82
2020/12/23 06:11:31;;;;;;;66.93;31.10;;;9.80;99.90;;;;;;5022835;28;20214;-82
2020/12/23 06:14:16;;;;;;;72.17;33.30;;;9.80;99.90;;;;;;5023156;28;20241;-81
2020/12/23 06:16:45;;;;;;;70.87;32.43;;;9.80;99.90;;;;;;5023393;28;20202;-81
2020/12/23 06:19:20;;;;;;;84.87;35.90;;;9.80;99.90;;;;;;5022826;28;20206;-81
2020/12/23 06:21:47;;;;;;;64.17;32.43;;;9.80;99.90;;;;;;5034637;28;20205;-81
2020/12/23 06:24:13;;;;;;;66.93;31.57;;;9.80;99.90;;;;;;5043756;28;20305;-81
2020/12/23 06:26:41;;;;;;;66.00;32.17;;;9.80;99.90;;;;;;5044949;28;20234;-81
2020/12/23 06:29:09;;;;;;;67.17;29.67;;;9.80;99.90;;;;;;5045178;28;20259;-80
2020/12/23 06:31:41;;;;;;;58.23;27.97;;;9.80;99.90;;;;;;5044862;28;20198;-80
2020/12/23 06:34:07;;;;;;;63.03;32.10;;;9.80;99.90;;;;;;5045267;28;20217;-80
2020/12/23 06:36:36;;;;;;;60.03;29.23;;;9.80;99.90;;;;;;5045134;28;20206;-81
2020/12/23 06:39:32;;;;;;;61.83;29.70;;;9.80;99.90;;;;;;5044486;28;20213;-79
2020/12/23 06:42:35;;;;;;;72.53;32.37;;;9.90;99.90;;;;;;5045786;28;20194;-81
2020/12/23 06:45:07;;;;;;;59.10;28.27;;;9.90;99.90;;;;;;5045205;28;20269;-81
2020/12/23 06:47:34;;;;;;;58.73;29.23;;;9.90;99.90;;;;;;5045207;28;20198;-81
2020/12/23 06:50:03;;;;;;;58.23;30.03;;;9.90;99.90;;;;;;5044931;28;20222;-81
2020/12/23 06:52:39;;;;;;;54.83;27.60;;;9.90;99.90;;;;;;5044938;28;20202;-80
2020/12/23 06:55:08;;;;;;;57.03;27.93;;;9.90;99.90;;;;;;5045097;28;20605;-82
2020/12/23 06:57:50;;;;;;;52.77;25.70;;;9.90;99.90;;;;;;5044588;28;20206;-81
2020/12/23 07:00:40;;;;;;;61.83;29.07;;;9.90;99.90;;;;;;5044423;28;20198;-80
2020/12/23 07:03:08;;;;;;;55.23;26.03;;;9.90;99.90;;;;;;5045306;28;20212;-82
2020/12/23 07:05:40;;;;;;;62.37;29.37;;;9.90;99.90;;;;;;5044562;28;20197;-79
2020/12/23 07:08:07;;;;;;;56.80;28.83;;;9.90;99.90;;;;;;5044852;28;20206;-80
2020/12/23 07:10:37;;;;;;;55.27;27.03;;;9.90;99.90;;;;;;5045026;28;20222;-79
2020/12/23 07:13:05;;;;;;;53.73;26.80;;;9.90;99.90;;;;;;5044594;28;20199;-80
2020/12/23 07:15:34;;;;;;;56.80;30.37;;;9.90;99.90;;;;;;5044565;28;20594;-79
2020/12/23 07:18:03;;;;;;;46.00;25.47;;;10.00;99.90;;;;;;5043583;28;20214;-80
2020/12/23 07:20:34;;;;;;;52.90;27.30;;;10.00;99.90;;;;;;5043385;28;20273;-79
2020/12/23 07:23:11;;;;;;;60.73;29.83;;;10.00;99.90;;;;;;5044566;28;20213;-79
2020/12/23 07:25:41;;;;;;;53.10;29.57;;;10.00;99.90;;;;;;5044369;28;20190;-81
2020/12/23 07:28:09;;;;;;;53.83;27.13;;;10.10;99.90;;;;;;5043213;28;20238;-79
2020/12/23 07:30:38;;;;;;;43.23;24.20;;;10.00;99.90;;;;;;5043977;28;20232;-81
2020/12/23 07:33:14;;;;;;;56.47;28.17;;;10.00;99.90;;;;;;5044613;28;20198;-82
2020/12/23 07:35:45;;;;;;;50.00;26.47;;;10.00;99.90;;;;;;5044019;28;20201;-81
2020/12/23 07:38:12;;;;;;;58.87;29.93;;;10.10;99.90;;;;;;5044237;28;20193;-79
2020/12/23 07:40:39;;;;;;;46.77;26.17;;;10.10;99.90;;;;;;5044180;28;20202;-81
2020/12/23 07:43:08;;;;;;;47.37;25.23;;;10.10;99.90;;;;;;5043873;28;20221;-79
2020/12/23 07:45:36;;;;;;;43.97;25.00;;;10.10;99.90;;;;;;5044265;28;20549;-80
2020/12/23 07:48:05;;;;;;;44.83;23.60;;;10.10;99.90;;;;;;5043832;28;20260;-80
2020/12/23 07:50:32;;;;;;;41.93;22.27;;;10.10;99.90;;;;;;5043383;28;20789;-80
2020/12/23 07:53:10;;;;;;;38.93;22.60;;;10.10;99.90;;;;;;5044182;28;20894;-79
2020/12/23 07:55:37;;;;;;;40.77;21.90;;;10.10;99.90;;;;;;5043595;28;20212;-80
2020/12/23 07:58:05;;;;;;;40.27;23.27;;;10.10;99.90;;;;;;5042057;28;20244;-80
2020/12/23 08:00:32;;;;;;;39.50;22.00;;;10.10;99.90;;;;;;5044131;28;20515;-79
2020/12/23 08:02:58;;;;;;;43.67;25.33;;;10.10;99.90;;;;;;5043745;28;20256;-80
2020/12/23 08:05:26;;;;;;;41.53;23.53;;;10.10;99.90;;;;;;5021072;28;20268;-79
2020/12/23 08:07:52;;;;;;;37.90;21.90;;;10.20;99.90;;;;;;5022054;28;20198;-81
2020/12/23 08:10:20;;;;;;;35.70;22.30;;;10.10;99.90;;;;;;5022104;28;20313;-80
2020/12/23 08:12:54;;;;;;;34.63;22.20;;;10.20;99.90;;;;;;5023752;28;20216;-80
2020/12/23 08:15:22;;;;;;;38.17;22.10;;;10.20;99.90;;;;;;5023683;28;20206;-80
2020/12/23 08:17:57;;;;;;;37.93;22.40;;;10.20;99.90;;;;;;5022711;28;20573;-80
2020/12/23 08:20:23;;;;;;;31.97;21.53;;;10.10;99.90;;;;;;5019869;28;20836;-80
2020/12/23 08:22:50;;;;;;;32.80;21.10;;;10.10;99.90;;;;;;5023195;28;20304;-80
2020/12/23 08:25:18;;;;;;;35.37;22.27;;;10.20;99.90;;;;;;5024337;28;20195;-80
2020/12/23 08:27:46;;;;;;;36.00;21.50;;;10.20;99.90;;;;;;5024202;28;20238;-80
2020/12/23 08:30:16;;;;;;;30.63;22.03;;;10.20;99.90;;;;;;5024060;28;20860;-79
2020/12/23 08:32:46;;;;;;;32.33;20.40;;;10.20;99.90;;;;;;5024853;28;20187;-81
2020/12/23 08:35:12;;;;;;;28.53;18.73;;;10.20;99.90;;;;;;5024371;28;20276;-79
2020/12/23 08:37:39;;;;;;;28.23;18.20;;;10.20;99.90;;;;;;5022564;28;20198;-81
2020/12/23 08:40:07;;;;;;;28.83;17.90;;;10.20;99.90;;;;;;5022641;28;20202;-79
2020/12/23 08:42:33;;;;;;;25.37;16.70;;;10.20;99.90;;;;;;5023418;28;20206;-80
2020/12/23 08:45:00;;;;;;;28.90;18.90;;;10.20;99.90;;;;;;5022683;28;20201;-81
2020/12/23 08:47:30;;;;;;;35.13;22.03;;;10.20;99.90;;;;;;5022554;28;20221;-80
2020/12/23 08:49:58;;;;;;;35.37;21.97;;;10.30;99.90;;;;;;5022311;28;20905;-81
2020/12/23 08:52:25;;;;;;;33.27;20.50;;;10.30;99.90;;;;;;5022006;28;20301;-81
2020/12/23 08:54:52;;;;;;;30.93;19.87;;;10.30;99.90;;;;;;5022710;28;20217;-80
2020/12/23 08:57:26;;;;;;;31.90;20.37;;;10.40;99.90;;;;;;5023149;28;20214;-81
2020/12/23 08:59:54;;;;;;;23.43;15.47;;;10.40;99.90;;;;;;5022732;28;20201;-81
2020/12/23 09:02:22;;;;;;;20.43;13.13;;;10.50;99.90;;;;;;5022711;28;20213;-80
2020/12/23 09:04:48;;;;;;;15.33;9.53;;;10.60;99.90;;;;;;5022316;28;20198;-80
2020/12/23 09:07:21;;;;;;;10.50;7.17;;;10.70;99.90;;;;;;5022351;28;20510;-80
2020/12/23 09:09:48;;;;;;;6.77;5.20;;;10.80;99.90;;;;;;5022584;28;20234;-81
2020/12/23 09:12:24;;;;;;;7.23;5.37;;;10.90;99.90;;;;;;5022170;28;20207;-78
2020/12/23 09:14:50;;;;;;;7.23;5.30;;;11.00;99.90;;;;;;5022597;28;20206;-81
2020/12/23 09:17:22;;;;;;;8.47;5.97;;;11.00;99.90;;;;;;5022517;28;20223;-80
2020/12/23 09:19:51;;;;;;;9.77;7.10;;;11.10;99.90;;;;;;5022145;28;20194;-79
2020/12/23 09:22:29;;;;;;;11.17;8.33;;;11.10;99.90;;;;;;5023020;28;20260;-81
2020/12/23 09:25:19;;;;;;;13.57;10.27;;;11.10;99.90;;;;;;5022804;28;20233;-80
2020/12/23 09:27:47;;;;;;;15.13;10.53;;;11.20;99.90;;;;;;5022053;28;20245;-81
2020/12/23 09:30:13;;;;;;;15.90;11.27;;;11.30;99.90;;;;;;5023500;28;20672;-80
2020/12/23 09:32:53;;;;;;;15.57;11.43;;;11.30;99.90;;;;;;5022485;28;20209;-81
2020/12/23 09:35:23;;;;;;;14.93;10.83;;;11.30;99.90;;;;;;5022091;28;20218;-80
2020/12/23 09:38:02;;;;;;;16.17;11.00;;;11.30;99.90;;;;;;5022888;28;20524;-81
2020/12/23 09:40:28;;;;;;;14.90;10.80;;;11.30;99.90;;;;;;5022386;28;20202;-80
2020/12/23 09:42:54;;;;;;;13.60;10.73;;;11.40;99.90;;;;;;5022746;28;20211;-80
2020/12/23 09:45:21;;;;;;;16.93;11.30;;;11.30;99.90;;;;;;5022036;28;20603;-82
2020/12/23 09:47:47;;;;;;;14.73;9.30;;;11.30;99.90;;;;;;5022602;28;20207;-82
2020/12/23 09:50:13;;;;;;;12.60;9.33;;;11.30;99.90;;;;;;5022042;28;20260;-83
2020/12/23 09:52:40;;;;;;;13.87;9.00;;;11.40;99.90;;;;;;5023047;28;20206;-82
2020/12/23 09:55:08;;;;;;;11.27;8.57;;;11.40;99.90;;;;;;5022602;28;20225;-81
2020/12/23 09:57:34;;;;;;;10.50;6.77;;;11.40;99.90;;;;;;5023247;28;20235;-81
2020/12/23 10:00:00;;;;;;;10.10;7.37;;;11.40;99.90;;;;;;5026188;28;20625;-81
2020/12/23 10:02:26;;;;;;;9.70;7.80;;;11.40;99.90;;;;;;5026443;28;20206;-79
2020/12/23 10:04:53;;;;;;;10.27;6.57;;;11.50;99.90;;;;;;5026988;28;20499;-80
2020/12/23 10:07:21;;;;;;;10.97;8.07;;;11.40;99.90;;;;;;5024696;28;20207;-78
2020/12/23 10:09:47;;;;;;;10.20;7.47;;;11.50;99.90;;;;;;5024490;28;20280;-79
2020/12/23 10:12:14;;;;;;;9.30;7.10;;;11.50;99.90;;;;;;5025125;28;20282;-80
2020/12/23 10:14:41;;;;;;;9.50;7.60;;;11.50;99.90;;;;;;5023951;28;20267;-79
2020/12/23 10:17:07;;;;;;;8.93;8.00;;;11.50;99.90;;;;;;5024681;28;20219;-81
2020/12/23 10:19:33;;;;;;;9.77;8.77;;;11.60;99.90;;;;;;5025833;28;20644;-81
2020/12/23 10:22:00;;;;;;;12.30;9.67;;;11.60;99.90;;;;;;5043275;28;20210;-81
2020/12/23 10:24:27;;;;;;;11.47;10.20;;;11.60;99.90;;;;;;5047972;28;20198;-83
2020/12/23 10:26:53;;;;;;;11.33;10.00;;;11.60;99.90;;;;;;5049634;28;20245;-83
2020/12/23 10:29:21;;;;;;;10.20;9.10;;;11.60;99.90;;;;;;5048560;28;20205;-82
2020/12/23 10:31:47;;;;;;;11.50;10.30;;;11.60;99.90;;;;;;5048582;28;20194;-81
2020/12/23 10:34:14;;;;;;;13.03;10.37;;;11.60;99.90;;;;;;5048930;28;20194;-84
2020/12/23 10:36:41;;;;;;;12.20;10.53;;;11.70;99.90;;;;;;5048372;28;20259;-85
2020/12/23 10:39:07;;;;;;;12.33;10.90;;;11.70;99.90;;;;;;5049791;28;20197;-84
2020/12/23 10:41:34;;;;;;;11.50;10.33;;;11.70;99.90;;;;;;5050236;28;20198;-83
2020/12/23 10:44:00;;;;;;;13.07;11.23;;;11.70;99.90;;;;;;5041584;28;20407;-83
2020/12/23 10:46:27;;;;;;;14.93;12.87;;;11.70;99.90;;;;;;5030464;28;20827;-84
2020/12/23 10:48:53;;;;;;;13.97;11.97;;;11.70;99.90;;;;;;5009944;28;20211;-84
2020/12/23 10:51:20;;;;;;;13.53;11.80;;;11.60;99.90;;;;;;5009027;28;20223;-79
2020/12/23 10:53:46;;;;;;;14.53;12.90;;;11.60;99.90;;;;;;5009010;28;20246;-84
2020/12/23 10:56:12;;;;;;;13.10;11.73;;;11.60;99.90;;;;;;5009668;28;20203;-80
2020/12/23 10:58:38;;;;;;;16.07;14.00;;;11.70;99.90;;;;;;5010145;28;20277;-82
2020/12/23 11:01:05;;;;;;;17.30;13.57;;;11.70;99.90;;;;;;5009970;28;20199;-83
2020/12/23 11:03:32;;;;;;;18.63;14.83;;;11.70;99.90;;;;;;5009690;28;20207;-82
2020/12/23 11:05:59;;;;;;;18.37;15.43;;;11.70;99.90;;;;;;5009007;28;20988;-82
2020/12/23 11:08:25;;;;;;;20.17;15.67;;;11.70;99.90;;;;;;5006645;28;20257;-81
2020/12/23 11:10:51;;;;;;;23.53;16.10;;;11.70;99.90;;;;;;5005833;28;20234;-82
2020/12/23 11:13:18;;;;;;;20.67;16.57;;;11.70;99.90;;;;;;5004829;28;20207;-79
2020/12/23 11:15:44;;;;;;;21.07;17.40;;;11.70;99.90;;;;;;5005459;28;20207;-78
2020/12/23 11:18:10;;;;;;;17.27;15.03;;;11.70;99.90;;;;;;5004315;28;20207;-77
2020/12/23 11:20:38;;;;;;;19.30;15.37;;;11.70;99.90;;;;;;5009182;28;20199;-79
2020/12/23 11:23:04;;;;;;;18.53;15.60;;;11.60;99.90;;;;;;5044251;28;20753;-78
2020/12/23 11:25:30;;;;;;;19.00;14.97;;;11.70;99.90;;;;;;5043904;28;20210;-77
2020/12/23 11:27:57;;;;;;;20.60;15.83;;;11.70;99.90;;;;;;5043255;28;20245;-78
2020/12/23 11:30:24;;;;;;;19.30;15.93;;;11.70;99.90;;;;;;5043484;28;20225;-78
2020/12/23 11:32:50;;;;;;;18.37;15.47;;;11.70;99.90;;;;;;5043589;28;20213;-78
2020/12/23 11:35:17;;;;;;;18.40;16.33;;;11.70;99.90;;;;;;5043957;28;20201;-78
2020/12/23 11:37:44;;;;;;;20.70;16.17;;;11.70;99.90;;;;;;5043842;28;20875;-77
2020/12/23 11:40:10;;;;;;;20.10;16.20;;;11.70;99.90;;;;;;5043130;28;20197;-79
2020/12/23 11:42:41;;;;;;;20.67;16.93;;;11.70;99.90;;;;;;5043579;28;20911;-77
2020/12/23 11:45:08;;;;;;;19.50;15.93;;;11.70;99.90;;;;;;5043748;28;20198;-80
2020/12/23 11:47:35;;;;;;;18.40;16.07;;;11.70;99.90;;;;;;5043646;28;20585;-78
2020/12/23 11:50:01;;;;;;;21.73;17.00;;;11.70;99.90;;;;;;5043610;28;20233;-78
2020/12/23 11:52:28;;;;;;;19.40;17.33;;;11.70;99.90;;;;;;5043597;28;20194;-79
2020/12/23 11:54:55;;;;;;;20.50;17.40;;;11.70;99.90;;;;;;5043238;28;20202;-79
2020/12/23 11:57:21;;;;;;;21.67;17.70;;;11.70;99.90;;;;;;5042782;28;20206;-77
2020/12/23 11:59:48;;;;;;;23.60;18.67;;;11.70;99.90;;;;;;5042630;28;20216;-78
2020/12/23 12:02:14;;;;;;;22.43;18.83;;;11.70;99.90;;;;;;5042087;28;21007;-77
2020/12/23 12:04:41;;;;;;;21.63;17.03;;;11.70;99.90;;;;;;5043165;28;20881;-79
2020/12/23 12:07:07;;;;;;;21.77;18.07;;;11.70;99.90;;;;;;5042956;28;20205;-77
2020/12/23 12:09:34;;;;;;;24.60;19.57;;;11.70;99.90;;;;;;5042928;28;20210;-77
2020/12/23 12:12:03;;;;;;;25.57;19.40;;;11.70;99.90;;;;;;5042822;28;20206;-77
2020/12/23 12:14:29;;;;;;;20.33;17.77;;;11.70;99.90;;;;;;5043040;28;20582;-78
2020/12/23 12:16:56;;;;;;;20.90;17.60;;;11.70;99.90;;;;;;5042253;28;20221;-79
2020/12/23 12:19:22;;;;;;;21.90;17.63;;;11.70;99.90;;;;;;5042034;28;20214;-78
2020/12/23 12:21:48;;;;;;;24.83;18.43;;;11.70;99.90;;;;;;5028731;28;20206;-78
2020/12/23 12:24:15;;;;;;;23.30;17.33;;;11.70;99.90;;;;;;5022287;28;20203;-77
2020/12/23 12:26:41;;;;;;;22.70;17.50;;;11.70;99.90;;;;;;5022680;28;20280;-77
2020/12/23 12:29:08;;;;;;;23.67;17.53;;;11.70;99.90;;;;;;5022183;28;20241;-77
2020/12/23 12:31:34;;;;;;;62.90;57.07;;;11.70;99.90;;;;;;5022515;28;20824;-77
2020/12/23 12:34:01;;;;;;;21.90;17.10;;;11.70;99.90;;;;;;5022632;28;20203;-77
2020/12/23 12:36:27;;;;;;;21.17;16.30;;;11.70;99.90;;;;;;5022326;28;20265;-77